createdAt,value
2022-12-11T00:00:48.419Z,-1.39
2022-12-11T00:03:16.627Z,-1.41
2022-12-11T00:05:44.407Z,-1.53
2022-12-11T00:08:11.947Z,-1.41
2022-12-11T00:10:38.772Z,-1.48
2022-12-11T00:13:06.532Z,-1.50
2022-12-11T00:15:33.812Z,-1.53
2022-12-11T00:18:00.404Z,-1.54
2022-12-11T00:20:27.115Z,-1.85
2022-12-11T00:22:53.640Z,-1.73
2022-12-11T00:25:20.228Z,-1.67
2022-12-11T00:27:47.298Z,-2.81
2022-12-11T00:30:14.502Z,-1.71
2022-12-11T00:32:41.079Z,-1.80
2022-12-11T00:35:08.462Z,-2.55
2022-12-11T00:37:35.755Z,-1.85
2022-12-11T00:40:03.241Z,-1.97
2022-12-11T00:42:29.770Z,-2.38
2022-12-11T00:44:56.412Z,-2.02
2022-12-11T00:47:22.976Z,-2.39
2022-12-11T00:49:50.105Z,-2.03
2022-12-11T00:52:17.854Z,-2.18
2022-12-11T00:54:45.017Z,-2.28
2022-12-11T00:57:11.594Z,-2.17
2022-12-11T00:59:38.708Z,-2.20
2022-12-11T01:02:05.365Z,-3.03
2022-12-11T01:04:35.211Z,-2.07
2022-12-11T01:07:01.738Z,-2.18
2022-12-11T01:09:48.565Z,-2.94
2022-12-11T01:12:15.118Z,-2.21
2022-12-11T01:14:41.677Z,-2.69
2022-12-11T01:17:08.202Z,-2.29
2022-12-11T01:19:34.726Z,-2.17
2022-12-11T01:22:01.357Z,-3.73
2022-12-11T01:24:28.505Z,-2.20
2022-12-11T01:26:56.961Z,-3.37
2022-12-11T01:29:23.480Z,-2.29
2022-12-11T01:31:50.010Z,-2.17
2022-12-11T01:34:16.539Z,-2.36
2022-12-11T01:36:43.686Z,-2.24
2022-12-11T01:39:10.270Z,-2.15
2022-12-11T01:41:36.767Z,-2.17
2022-12-11T01:44:29.246Z,-2.91
2022-12-11T01:46:56.589Z,-2.27
2022-12-11T01:49:26.104Z,-2.27
2022-12-11T01:51:58.020Z,-2.35
2022-12-11T01:54:27.513Z,-2.24
2022-12-11T01:56:58.419Z,-2.30
2022-12-11T01:59:29.124Z,-2.37
2022-12-11T02:02:10.033Z,-2.38
2022-12-11T02:04:39.007Z,-2.42
2022-12-11T02:07:06.230Z,-2.37
2022-12-11T02:09:35.314Z,-3.52
2022-12-11T02:12:03.739Z,-2.37
2022-12-11T02:14:43.500Z,-4.57
2022-12-11T02:17:19.550Z,-2.78
2022-12-11T02:19:48.943Z,-2.30
2022-12-11T02:22:29.108Z,-2.25
2022-12-11T02:25:23.666Z,-2.91
2022-12-11T02:28:05.574Z,-2.32
2022-12-11T02:30:37.070Z,-3.53
2022-12-11T02:33:05.283Z,-2.32
2022-12-11T02:35:39.812Z,-2.34
2022-12-11T02:38:11.672Z,-2.33
2022-12-11T02:40:40.860Z,-3.58
2022-12-11T02:43:11.703Z,-2.33
2022-12-11T02:45:42.228Z,-2.95
2022-12-11T02:48:11.793Z,-2.33
2022-12-11T02:50:44.330Z,-2.47
2022-12-11T02:53:13.410Z,-2.36
2022-12-11T02:55:44.631Z,-2.39
2022-12-11T02:58:19.792Z,-2.43
2022-12-11T03:00:46.865Z,-3.84
2022-12-11T03:03:14.108Z,-2.88
2022-12-11T03:05:41.999Z,-3.59
2022-12-11T03:08:08.626Z,-3.10
2022-12-11T03:10:35.260Z,-3.61
2022-12-11T03:13:02.807Z,-3.12
2022-12-11T03:15:41.576Z,-3.76
2022-12-11T03:18:26.719Z,-2.77
2022-12-11T03:21:05.193Z,-2.81
2022-12-11T03:23:48.924Z,-3.81
2022-12-11T03:26:18.580Z,-2.86
2022-12-11T03:28:58.496Z,-2.99
2022-12-11T03:31:42.482Z,-2.98
2022-12-11T03:34:16.407Z,-4.03
2022-12-11T03:36:45.511Z,-2.83
2022-12-11T03:39:24.149Z,-2.80
2022-12-11T03:41:52.806Z,-4.08
2022-12-11T03:44:21.385Z,-2.70
2022-12-11T03:46:50.457Z,-2.66
2022-12-11T03:49:22.919Z,-3.12
2022-12-11T03:51:52.269Z,-2.63
2022-12-11T03:54:19.458Z,-2.65
2022-12-11T03:56:48.611Z,-3.20
2022-12-11T03:59:15.209Z,-2.76
2022-12-11T04:01:42.310Z,-2.82
2022-12-11T04:04:09.053Z,-2.77
2022-12-11T04:06:35.909Z,-2.76
2022-12-11T04:09:02.787Z,-2.84
2022-12-11T04:11:35.153Z,-2.86
2022-12-11T04:14:21.859Z,-2.85
2022-12-11T04:16:48.458Z,-2.91
2022-12-11T04:19:34.037Z,-2.86
2022-12-11T04:22:19.409Z,-4.08
2022-12-11T04:24:49.035Z,-3.74
2022-12-11T04:27:36.153Z,-3.01
2022-12-11T04:30:05.716Z,-2.90
2022-12-11T04:32:32.248Z,-3.36
2022-12-11T04:34:58.887Z,-2.96
2022-12-11T04:37:26.837Z,-3.01
2022-12-11T04:39:53.455Z,-4.15
2022-12-11T04:42:20.171Z,-3.34
2022-12-11T04:44:46.808Z,-3.25
2022-12-11T04:47:15.036Z,-3.64
2022-12-11T04:49:41.686Z,-3.37
2022-12-11T04:52:08.305Z,-3.72
2022-12-11T04:54:34.947Z,-3.99
2022-12-11T04:57:01.536Z,-4.36
2022-12-11T04:59:28.484Z,-3.86
2022-12-11T05:01:55.032Z,-3.44
2022-12-11T05:04:21.617Z,-3.49
2022-12-11T05:06:50.406Z,-3.55
2022-12-11T05:09:17.290Z,-3.62
2022-12-11T05:11:43.827Z,-4.98
2022-12-11T05:14:10.633Z,-4.86
2022-12-11T05:16:37.233Z,-3.60
2022-12-11T05:19:03.747Z,-3.67
2022-12-11T05:21:34.839Z,-4.76
2022-12-11T05:24:01.638Z,-3.73
2022-12-11T05:26:28.264Z,-5.08
2022-12-11T05:28:55.447Z,-3.72
2022-12-11T05:31:26.966Z,-3.73
2022-12-11T05:33:54.122Z,-3.77
2022-12-11T05:36:29.957Z,-3.79
2022-12-11T05:38:58.215Z,-3.76
2022-12-11T05:41:27.055Z,-3.76
2022-12-11T05:43:53.903Z,-4.47
2022-12-11T05:46:25.951Z,-3.81
2022-12-11T05:48:55.548Z,-3.90
2022-12-11T05:51:22.799Z,-4.69
2022-12-11T05:53:52.134Z,-3.90
2022-12-11T05:56:27.538Z,-4.04
2022-12-11T05:58:55.608Z,-3.91
2022-12-11T06:01:42.790Z,-3.90
2022-12-11T06:04:11.672Z,-3.90
2022-12-11T06:06:38.659Z,-3.88
2022-12-11T06:09:06.117Z,-5.55
2022-12-11T06:11:33.978Z,-4.73
2022-12-11T06:14:02.388Z,-3.81
2022-12-11T06:16:29.126Z,-5.40
2022-12-11T06:18:58.358Z,-3.78
2022-12-11T06:21:29.415Z,-3.78
2022-12-11T06:23:58.346Z,-3.76
2022-12-11T06:26:25.416Z,-3.73
2022-12-11T06:28:52.009Z,-5.92
2022-12-11T06:31:19.576Z,-4.56
2022-12-11T06:33:46.634Z,-3.63
2022-12-11T06:36:16.616Z,-4.75
2022-12-11T06:38:44.430Z,-3.59
2022-12-11T06:41:11.264Z,-3.87
2022-12-11T06:43:40.107Z,-3.58
2022-12-11T06:46:18.445Z,-3.55
2022-12-11T06:48:45.699Z,-5.09
2022-12-11T06:51:23.000Z,-3.57
2022-12-11T06:53:54.749Z,-3.58
2022-12-11T06:56:22.500Z,-3.60
2022-12-11T06:58:49.312Z,-4.67
2022-12-11T07:01:18.947Z,-4.10
2022-12-11T07:03:45.924Z,-3.68
2022-12-11T07:06:13.937Z,-3.69
2022-12-11T07:08:40.886Z,-5.85
2022-12-11T07:11:09.731Z,-3.69
2022-12-11T07:13:36.590Z,-3.70
2022-12-11T07:16:05.629Z,-3.72
2022-12-11T07:18:32.682Z,-7.38
2022-12-11T07:21:02.315Z,-4.52
2022-12-11T07:23:29.993Z,-4.58
2022-12-11T07:25:57.514Z,-5.03
2022-12-11T07:28:24.352Z,-3.66
2022-12-11T07:30:51.012Z,-3.64
2022-12-11T07:33:18.164Z,-4.19
2022-12-11T07:35:44.860Z,-3.55
2022-12-11T07:38:11.612Z,-3.53
2022-12-11T07:40:38.176Z,-4.83
2022-12-11T07:43:04.736Z,-3.55
2022-12-11T07:45:31.744Z,-6.18
2022-12-11T07:48:00.446Z,-3.53
2022-12-11T07:50:28.433Z,-3.51
2022-12-11T07:52:55.171Z,-3.48
2022-12-11T07:55:21.733Z,-4.79
2022-12-11T07:57:48.370Z,-3.43
2022-12-11T08:00:15.096Z,-3.53
2022-12-11T08:02:44.539Z,-3.82
2022-12-11T08:05:14.007Z,-3.27
2022-12-11T08:07:40.690Z,-4.64
2022-12-11T08:10:07.567Z,-3.91
2022-12-11T08:12:35.378Z,-3.03
2022-12-11T08:15:02.218Z,-4.12
2022-12-11T08:17:31.799Z,-2.90
2022-12-11T08:20:00.544Z,-2.82
2022-12-11T08:22:28.261Z,-3.55
2022-12-11T08:24:54.852Z,-3.06
2022-12-11T08:27:21.471Z,-3.42
2022-12-11T08:29:48.050Z,-2.52
2022-12-11T08:32:16.721Z,-2.42
2022-12-11T08:34:43.682Z,-2.30
2022-12-11T08:37:11.248Z,-2.57
2022-12-11T08:39:38.957Z,-2.04
2022-12-11T08:42:06.942Z,-2.54
2022-12-11T08:44:33.489Z,-1.83
2022-12-11T08:47:00.041Z,-1.97
2022-12-11T08:49:29.919Z,-2.69
2022-12-11T08:52:00.770Z,-1.67
2022-12-11T08:54:27.280Z,-1.89
2022-12-11T08:56:57.991Z,-2.59
2022-12-11T08:59:28.303Z,-1.72
2022-12-11T09:01:55.514Z,-2.56
2022-12-11T09:04:22.706Z,-1.42
2022-12-11T09:06:49.524Z,-1.69
2022-12-11T09:09:16.036Z,-1.66
2022-12-11T09:11:42.755Z,-2.42
2022-12-11T09:14:12.193Z,-1.77
2022-12-11T09:16:42.852Z,-1.66
2022-12-11T09:19:19.107Z,-1.51
2022-12-11T09:21:45.956Z,-1.56
2022-12-11T09:24:16.947Z,-1.38
2022-12-11T09:26:43.623Z,-2.20
2022-12-11T09:29:11.458Z,-1.29
2022-12-11T09:31:38.164Z,-1.39
2022-12-11T09:34:07.417Z,-2.29
2022-12-11T09:36:34.311Z,-1.45
2022-12-11T09:39:06.034Z,-1.39
2022-12-11T09:41:38.454Z,-1.34
2022-12-11T09:44:11.182Z,-1.32
2022-12-11T09:46:39.567Z,-1.26
2022-12-11T09:49:18.474Z,-1.15
2022-12-11T09:51:51.928Z,-0.91
2022-12-11T09:54:19.108Z,-1.20
2022-12-11T09:56:54.976Z,-1.97
2022-12-11T09:59:29.594Z,-1.24
2022-12-11T10:02:22.517Z,-1.44
2022-12-11T10:05:00.859Z,-0.43
2022-12-11T10:07:43.453Z,-0.44
2022-12-11T10:10:16.204Z,-0.51
2022-12-11T10:13:03.044Z,-0.45
2022-12-11T10:15:48.318Z,-0.47
2022-12-11T10:18:21.262Z,-0.39
2022-12-11T10:20:50.302Z,-0.55
2022-12-11T10:23:22.193Z,-0.73
2022-12-11T10:25:56.107Z,-0.56
2022-12-11T10:28:22.966Z,-1.02
2022-12-11T10:31:15.825Z,-1.39
2022-12-11T10:34:00.446Z,-0.54
2022-12-11T10:36:30.735Z,-0.79
2022-12-11T10:38:57.963Z,-1.09
2022-12-11T10:41:36.011Z,-1.11
2022-12-11T10:44:25.660Z,-1.71
2022-12-11T10:47:12.171Z,-0.64
2022-12-11T10:49:43.133Z,-0.38
2022-12-11T10:52:13.733Z,-0.46
2022-12-11T10:54:43.591Z,-0.43
2022-12-11T10:57:14.227Z,-0.51
2022-12-11T10:59:45.696Z,-1.03
2022-12-11T11:02:18.522Z,-0.34
2022-12-11T11:04:45.559Z,-0.41
2022-12-11T11:07:13.516Z,-0.85
2022-12-11T11:09:40.876Z,-0.34
2022-12-11T11:12:24.595Z,-0.72
2022-12-11T11:15:06.872Z,-0.58
2022-12-11T11:17:49.803Z,-0.41
2022-12-11T11:20:25.968Z,-0.15
2022-12-11T11:22:56.094Z,-0.93
2022-12-11T11:25:28.812Z,-1.53
2022-12-11T11:27:55.338Z,-0.40
2022-12-11T11:30:31.111Z,-0.51
2022-12-11T11:33:02.348Z,-0.47
2022-12-11T11:35:31.153Z,-0.21
2022-12-11T11:38:20.302Z,-0.29
2022-12-11T11:41:05.674Z,-0.42
2022-12-11T11:43:43.085Z,-0.34
2022-12-11T11:46:22.003Z,-0.60
2022-12-11T11:48:48.604Z,-0.66
2022-12-11T11:51:31.367Z,-0.68
2022-12-11T11:54:01.536Z,-1.29
2022-12-11T11:56:36.541Z,-0.42
2022-12-11T11:59:18.328Z,-0.54
2022-12-11T12:01:45.198Z,-1.45
2022-12-11T12:04:12.155Z,-1.65
2022-12-11T12:06:56.474Z,-0.28
2022-12-11T12:09:42.418Z,-0.68
2022-12-11T12:12:09.004Z,-0.28
2022-12-11T12:15:05.748Z,-0.11
2022-12-11T12:18:16.946Z,-0.77
2022-12-11T12:20:53.807Z,-0.06
2022-12-11T12:24:06.668Z,-0.16
2022-12-11T12:26:36.600Z,-1.29
2022-12-11T12:29:11.950Z,-0.39
2022-12-11T12:31:53.620Z,-0.48
2022-12-11T12:34:39.385Z,-0.43
2022-12-11T12:37:23.213Z,-0.56
2022-12-11T12:40:28.913Z,-0.16
2022-12-11T12:42:55.433Z,-0.50
2022-12-11T12:45:28.831Z,-0.46
2022-12-11T12:47:55.414Z,-0.77
2022-12-11T12:50:26.276Z,-0.99
2022-12-11T12:52:54.239Z,-0.90
2022-12-11T12:55:27.121Z,-0.83
2022-12-11T12:57:57.695Z,-0.43
2022-12-11T13:00:38.561Z,-0.31
2022-12-11T13:03:19.214Z,-0.56
2022-12-11T13:06:07.686Z,-0.43
2022-12-11T13:08:38.191Z,-0.35
2022-12-11T13:11:11.957Z,-1.06
2022-12-11T13:14:06.264Z,-0.98
2022-12-11T13:16:39.666Z,-0.92
2022-12-11T13:19:18.468Z,-0.92
2022-12-11T13:22:00.039Z,-0.72
2022-12-11T13:24:28.682Z,-1.02
2022-12-11T13:26:55.905Z,-0.73
2022-12-11T13:29:32.658Z,-1.33
2022-12-11T13:32:02.118Z,-1.47
2022-12-11T13:34:33.691Z,-1.00
2022-12-11T13:37:02.471Z,-0.97
2022-12-11T13:39:39.326Z,-1.05
2022-12-11T13:42:20.642Z,-0.72
2022-12-11T13:44:50.853Z,-1.23
2022-12-11T13:47:19.722Z,-0.59
2022-12-11T13:49:49.960Z,-0.58
2022-12-11T13:52:28.669Z,-0.57
2022-12-11T13:54:56.317Z,-0.66
2022-12-11T13:57:25.888Z,-0.93
2022-12-11T13:59:54.677Z,-0.90
2022-12-11T14:02:29.733Z,-1.76
2022-12-11T14:05:02.521Z,-0.77
2022-12-11T14:07:36.413Z,-1.26
2022-12-11T14:10:28.356Z,-1.13
2022-12-11T14:13:02.600Z,-1.39
2022-12-11T14:15:31.742Z,-1.20
2022-12-11T14:18:00.115Z,-1.36
2022-12-11T14:20:31.117Z,-1.49
2022-12-11T14:23:19.723Z,-1.74
2022-12-11T14:26:23.116Z,-1.73
2022-12-11T14:28:50.011Z,-1.75
2022-12-11T14:31:23.445Z,-1.64
2022-12-11T14:33:55.753Z,-1.69
2022-12-11T14:36:23.564Z,-1.55
2022-12-11T14:38:56.480Z,-1.50
2022-12-11T14:41:35.132Z,-1.44
2022-12-11T14:44:04.941Z,-1.55
2022-12-11T14:46:43.851Z,-2.56
2022-12-11T14:49:35.256Z,-1.62
2022-12-11T14:52:04.186Z,-1.72
2022-12-11T14:54:39.032Z,-1.83
2022-12-11T14:57:07.429Z,-1.73
2022-12-11T14:59:44.429Z,-3.08
2022-12-11T15:02:29.791Z,-1.71
2022-12-11T15:05:03.152Z,-1.77
2022-12-11T15:07:29.958Z,-2.37
2022-12-11T15:09:56.612Z,-1.95
2022-12-11T15:12:24.057Z,-1.63
2022-12-11T15:15:15.066Z,-1.57
2022-12-11T15:17:41.871Z,-2.65
2022-12-11T15:20:20.101Z,-1.70
2022-12-11T15:22:46.770Z,-1.62
2022-12-11T15:25:25.190Z,-1.61
2022-12-11T15:28:00.070Z,-1.83
2022-12-11T15:30:32.617Z,-2.57
2022-12-11T15:33:04.373Z,-1.77
2022-12-11T15:35:31.052Z,-2.88
2022-12-11T15:37:59.465Z,-2.63
2022-12-11T15:40:27.940Z,-2.79
2022-12-11T15:42:57.660Z,-2.99
2022-12-11T15:45:28.356Z,-1.77
2022-12-11T15:47:55.583Z,-2.22
2022-12-11T15:50:28.294Z,-1.66
2022-12-11T15:52:56.744Z,-2.46
2022-12-11T15:55:34.158Z,-2.31
2022-12-11T15:58:07.763Z,-1.81
2022-12-11T16:00:34.308Z,-1.71
2022-12-11T16:03:01.982Z,-2.85
2022-12-11T16:05:29.771Z,-2.62
2022-12-11T16:07:59.542Z,-2.00
2022-12-11T16:10:27.109Z,-1.81
2022-12-11T16:12:59.190Z,-2.37
2022-12-11T16:15:27.027Z,-2.92
2022-12-11T16:18:02.954Z,-1.96
2022-12-11T16:20:31.172Z,-1.86
2022-12-11T16:22:59.179Z,-2.27
2022-12-11T16:25:29.660Z,-1.96
2022-12-11T16:28:00.540Z,-1.83
2022-12-11T16:30:28.935Z,-4.16
2022-12-11T16:33:00.288Z,-2.19
2022-12-11T16:35:28.543Z,-2.25
2022-12-11T16:37:59.269Z,-2.18
2022-12-11T16:40:25.815Z,-2.91
2022-12-11T16:42:52.595Z,-2.14
2022-12-11T16:45:22.465Z,-3.42
2022-12-11T16:47:49.268Z,-3.07
2022-12-11T16:50:16.730Z,-3.01
2022-12-11T16:52:44.402Z,-2.00
2022-12-11T16:55:15.562Z,-2.19
2022-12-11T16:57:42.616Z,-2.26
2022-12-11T17:00:12.706Z,-2.16
2022-12-11T17:02:39.772Z,-2.86
2022-12-11T17:05:08.855Z,-2.21
2022-12-11T17:07:37.373Z,-2.17
2022-12-11T17:10:07.522Z,-2.20
2022-12-11T17:12:34.343Z,-2.95
2022-12-11T17:15:00.933Z,-2.21
2022-12-11T17:17:28.061Z,-2.96
2022-12-11T17:19:55.737Z,-3.69
2022-12-11T17:22:22.658Z,-2.29
2022-12-11T17:24:49.631Z,-2.37
2022-12-11T17:27:16.244Z,-3.01
2022-12-11T17:29:43.068Z,-3.51
2022-12-11T17:32:09.610Z,-2.44
2022-12-11T17:34:38.541Z,-3.39
2022-12-11T17:37:06.144Z,-2.43
2022-12-11T17:39:33.408Z,-3.07
2022-12-11T17:42:00.352Z,-3.67
2022-12-11T17:44:31.176Z,-3.48
2022-12-11T17:46:58.853Z,-2.39
2022-12-11T17:49:25.840Z,-2.31
2022-12-11T17:51:55.607Z,-2.41
2022-12-11T17:54:23.589Z,-3.66
2022-12-11T17:56:53.304Z,-2.54
2022-12-11T17:59:19.988Z,-3.65
2022-12-11T18:01:46.753Z,-2.37
2022-12-11T18:04:13.393Z,-2.50
2022-12-11T18:06:40.139Z,-2.89
2022-12-11T18:09:07.090Z,-3.83
2022-12-11T18:11:34.689Z,-3.16
2022-12-11T18:14:01.793Z,-3.60
2022-12-11T18:16:37.898Z,-2.52
2022-12-11T18:19:06.018Z,-2.53
2022-12-11T18:21:35.598Z,-2.49
2022-12-11T18:24:02.917Z,-2.34
2022-12-11T18:26:29.964Z,-3.45
2022-12-11T18:29:00.489Z,-2.44
2022-12-11T18:31:29.215Z,-2.41
2022-12-11T18:33:56.631Z,-3.35
2022-12-11T18:36:23.494Z,-3.11
2022-12-11T18:38:52.919Z,-2.94
2022-12-11T18:41:20.380Z,-3.16
2022-12-11T18:43:47.245Z,-3.33
2022-12-11T18:46:16.675Z,-2.54
2022-12-11T18:48:44.624Z,-2.61
2022-12-11T18:51:17.591Z,-2.68
2022-12-11T18:53:44.848Z,-2.65
2022-12-11T18:56:15.197Z,-2.74
2022-12-11T18:58:42.399Z,-2.68
2022-12-11T19:01:13.852Z,-2.58
2022-12-11T19:03:44.189Z,-2.55
2022-12-11T19:06:13.936Z,-2.48
2022-12-11T19:08:41.031Z,-3.35
2022-12-11T19:11:07.895Z,-2.62
2022-12-11T19:13:35.497Z,-2.62
2022-12-11T19:16:02.670Z,-4.04
2022-12-11T19:18:31.978Z,-2.56
2022-12-11T19:21:06.722Z,-2.56
2022-12-11T19:23:36.412Z,-2.53
2022-12-11T19:26:03.608Z,-2.51
2022-12-11T19:28:30.496Z,-2.72
2022-12-11T19:30:57.178Z,-2.67
2022-12-11T19:33:24.057Z,-2.68
2022-12-11T19:36:01.026Z,-2.71
2022-12-11T19:38:28.125Z,-2.58
2022-12-11T19:40:55.325Z,-2.69
2022-12-11T19:43:21.964Z,-3.24
2022-12-11T19:45:48.790Z,-2.61
2022-12-11T19:48:15.458Z,-2.80
2022-12-11T19:50:41.999Z,-2.59
2022-12-11T19:53:08.572Z,-3.01
2022-12-11T19:55:38.142Z,-2.58
2022-12-11T19:58:07.367Z,-2.66
2022-12-11T20:00:37.603Z,-3.71
2022-12-11T20:03:04.184Z,-3.72
2022-12-11T20:05:30.728Z,-3.29
2022-12-11T20:08:14.298Z,-2.64
2022-12-11T20:10:44.840Z,-2.73
2022-12-11T20:13:11.458Z,-2.74
2022-12-11T20:15:38.941Z,-2.82
2022-12-11T20:18:05.604Z,-2.78
2022-12-11T20:20:32.394Z,-2.67
2022-12-11T20:22:59.374Z,-2.62
2022-12-11T20:25:27.348Z,-2.55
2022-12-11T20:27:55.666Z,-2.51
2022-12-11T20:30:23.718Z,-2.56
2022-12-11T20:32:51.585Z,-2.41
2022-12-11T20:35:18.659Z,-2.34
2022-12-11T20:37:45.422Z,-2.31
2022-12-11T20:40:13.078Z,-2.45
2022-12-11T20:42:40.476Z,-2.28
2022-12-11T20:45:07.804Z,-2.19
2022-12-11T20:47:34.771Z,-3.25
2022-12-11T20:50:01.718Z,-2.19
2022-12-11T20:52:28.309Z,-2.20
2022-12-11T20:54:54.874Z,-2.18
2022-12-11T20:57:21.637Z,-2.17
2022-12-11T20:59:49.530Z,-2.27
2022-12-11T21:02:16.459Z,-2.35
2022-12-11T21:04:43.167Z,-2.74
2022-12-11T21:07:10.616Z,-2.97
2022-12-11T21:09:38.338Z,-3.39
2022-12-11T21:12:06.200Z,-2.69
2022-12-11T21:14:32.969Z,-3.19
2022-12-11T21:16:59.788Z,-3.32
2022-12-11T21:19:26.815Z,-2.54
2022-12-11T21:21:55.156Z,-3.30
2022-12-11T21:24:27.518Z,-2.47
2022-12-11T21:26:56.163Z,-2.48
2022-12-11T21:29:24.681Z,-3.70
2022-12-11T21:31:51.749Z,-2.41
2022-12-11T21:34:25.040Z,-2.32
2022-12-11T21:36:56.429Z,-2.73
2022-12-11T21:39:24.881Z,-2.41
2022-12-11T21:41:52.756Z,-2.44
2022-12-11T21:47:06.040Z,-2.30
2022-12-11T21:49:32.672Z,-3.04
2022-12-11T21:51:59.774Z,-2.59
2022-12-11T21:54:26.959Z,-2.91
2022-12-11T21:56:54.580Z,-2.94
2022-12-11T21:59:21.254Z,-3.97
2022-12-11T22:01:47.817Z,-2.32
2022-12-11T22:04:15.532Z,-2.41
2022-12-11T22:06:43.435Z,-2.48
2022-12-11T22:09:12.389Z,-2.38
2022-12-11T22:11:41.219Z,-2.26
2022-12-11T22:14:18.879Z,-2.33
2022-12-11T22:16:45.877Z,-2.86
2022-12-11T22:19:12.891Z,-3.35
2022-12-11T22:21:39.989Z,-2.42
2022-12-11T22:24:07.075Z,-3.15
2022-12-11T22:26:33.633Z,-2.41
2022-12-11T22:29:00.198Z,-2.44
2022-12-11T22:31:30.136Z,-3.25
2022-12-11T22:33:56.779Z,-2.22
2022-12-11T22:36:26.023Z,-3.41
2022-12-11T22:38:53.401Z,-3.18
2022-12-11T22:41:29.434Z,-2.12
2022-12-11T22:43:57.130Z,-2.12
2022-12-11T22:46:27.258Z,-2.19
2022-12-11T22:48:54.898Z,-4.22
2022-12-11T22:51:23.450Z,-3.33
2022-12-11T22:53:50.338Z,-2.31
2022-12-11T22:56:17.276Z,-2.98
2022-12-11T22:58:43.833Z,-2.84
2022-12-11T23:01:17.174Z,-2.55
2022-12-11T23:03:43.942Z,-2.70
2022-12-11T23:06:13.388Z,-2.76
2022-12-11T23:08:40.680Z,-2.70
2022-12-11T23:11:20.096Z,-2.90
2022-12-11T23:13:46.785Z,-3.18
2022-12-11T23:16:14.060Z,-2.78
2022-12-11T23:18:40.921Z,-2.87
2022-12-11T23:21:08.942Z,-3.11
2022-12-11T23:23:35.970Z,-2.94
2022-12-11T23:26:04.335Z,-2.88
2022-12-11T23:28:31.092Z,-2.91
2022-12-11T23:30:57.665Z,-2.89
2022-12-11T23:33:25.715Z,-3.31
2022-12-11T23:35:52.325Z,-3.54
2022-12-11T23:38:20.060Z,-3.81
2022-12-11T23:40:46.964Z,-2.83
2022-12-11T23:43:13.563Z,-3.04
2022-12-11T23:45:43.562Z,-4.29
2022-12-11T23:48:10.438Z,-2.75
2022-12-11T23:50:37.117Z,-3.02
2022-12-11T23:53:03.714Z,-2.78
2022-12-11T23:55:30.307Z,-4.62
2022-12-11T23:57:57.054Z,-3.75
